sensor_id;sensor_type;location;lat;lon;timestamp;P1;durP1;ratioP1;P2;durP2;ratioP2
9712;SDS011;4895;50.926;6.870;2023-04-25T00:02:01;15.43;;;5.60;;
9712;SDS011;4895;50.926;6.870;2023-04-25T00:04:26;18.60;;;5.43;;
9712;SDS011;4895;50.926;6.870;2023-04-25T00:06:53;13.67;;;4.67;;
9712;SDS011;4895;50.926;6.870;2023-04-25T00:09:19;15.13;;;5.40;;
9712;SDS011;4895;50.926;6.870;2023-04-25T00:11:44;20.93;;;5.90;;
9712;SDS011;4895;50.926;6.870;2023-04-25T00:14:09;16.23;;;5.60;;
9712;SDS011;4895;50.926;6.870;2023-04-25T00:16:34;24.53;;;5.50;;
9712;SDS011;4895;50.926;6.870;2023-04-25T00:19:00;14.10;;;5.20;;
9712;SDS011;4895;50.926;6.870;2023-04-25T00:21:28;17.43;;;6.00;;
9712;SDS011;4895;50.926;6.870;2023-04-25T00:23:53;12.80;;;5.63;;
9712;SDS011;4895;50.926;6.870;2023-04-25T00:26:20;16.20;;;5.53;;
9712;SDS011;4895;50.926;6.870;2023-04-25T00:28:46;18.87;;;5.67;;
9712;SDS011;4895;50.926;6.870;2023-04-25T00:31:11;12.87;;;4.97;;
9712;SDS011;4895;50.926;6.870;2023-04-25T00:33:37;21.37;;;5.30;;
9712;SDS011;4895;50.926;6.870;2023-04-25T00:36:02;20.53;;;6.10;;
9712;SDS011;4895;50.926;6.870;2023-04-25T00:38:27;23.13;;;5.30;;
9712;SDS011;4895;50.926;6.870;2023-04-25T00:40:53;16.00;;;6.37;;
9712;SDS011;4895;50.926;6.870;2023-04-25T00:43:20;13.67;;;5.80;;
9712;SDS011;4895;50.926;6.870;2023-04-25T00:45:46;22.73;;;5.80;;
9712;SDS011;4895;50.926;6.870;2023-04-25T00:48:13;22.87;;;5.37;;
9712;SDS011;4895;50.926;6.870;2023-04-25T00:50:39;18.17;;;5.87;;
9712;SDS011;4895;50.926;6.870;2023-04-25T00:53:05;16.07;;;4.90;;
9712;SDS011;4895;50.926;6.870;2023-04-25T00:55:30;11.60;;;5.00;;
9712;SDS011;4895;50.926;6.870;2023-04-25T00:57:56;17.10;;;5.23;;
9712;SDS011;4895;50.926;6.870;2023-04-25T01:00:22;24.50;;;5.97;;
9712;SDS011;4895;50.926;6.870;2023-04-25T01:02:47;13.90;;;4.90;;
9712;SDS011;4895;50.926;6.870;2023-04-25T01:05:13;24.50;;;5.73;;
9712;SDS011;4895;50.926;6.870;2023-04-25T01:07:38;23.87;;;6.03;;
9712;SDS011;4895;50.926;6.870;2023-04-25T01:10:04;14.70;;;5.30;;
9712;SDS011;4895;50.926;6.870;2023-04-25T01:12:31;18.03;;;6.27;;
9712;SDS011;4895;50.926;6.870;2023-04-25T01:14:56;17.83;;;4.80;;
9712;SDS011;4895;50.926;6.870;2023-04-25T01:17:22;19.53;;;5.63;;
9712;SDS011;4895;50.926;6.870;2023-04-25T01:19:47;15.13;;;5.20;;
9712;SDS011;4895;50.926;6.870;2023-04-25T01:22:14;17.87;;;5.60;;
9712;SDS011;4895;50.926;6.870;2023-04-25T01:24:39;15.70;;;5.87;;
9712;SDS011;4895;50.926;6.870;2023-04-25T01:27:04;17.03;;;5.87;;
9712;SDS011;4895;50.926;6.870;2023-04-25T01:29:31;14.33;;;4.80;;
9712;SDS011;4895;50.926;6.870;2023-04-25T01:31:57;15.20;;;5.30;;
9712;SDS011;4895;50.926;6.870;2023-04-25T01:34:23;18.33;;;5.53;;
9712;SDS011;4895;50.926;6.870;2023-04-25T01:36:49;17.40;;;5.23;;
9712;SDS011;4895;50.926;6.870;2023-04-25T01:39:15;19.33;;;5.60;;
9712;SDS011;4895;50.926;6.870;2023-04-25T01:41:41;21.67;;;6.10;;
9712;SDS011;4895;50.926;6.870;2023-04-25T01:44:06;19.67;;;6.07;;
9712;SDS011;4895;50.926;6.870;2023-04-25T01:46:32;18.23;;;5.37;;
9712;SDS011;4895;50.926;6.870;2023-04-25T01:48:58;20.57;;;5.97;;
9712;SDS011;4895;50.926;6.870;2023-04-25T01:51:23;10.83;;;6.00;;
9712;SDS011;4895;50.926;6.870;2023-04-25T01:53:48;24.77;;;6.40;;
9712;SDS011;4895;50.926;6.870;2023-04-25T01:56:14;18.73;;;5.37;;
9712;SDS011;4895;50.926;6.870;2023-04-25T01:58:39;15.50;;;6.43;;
9712;SDS011;4895;50.926;6.870;2023-04-25T02:01:04;15.97;;;5.60;;
9712;SDS011;4895;50.926;6.870;2023-04-25T02:03:30;14.67;;;5.30;;
9712;SDS011;4895;50.926;6.870;2023-04-25T02:05:56;15.53;;;5.50;;
9712;SDS011;4895;50.926;6.870;2023-04-25T02:08:21;20.73;;;5.30;;
9712;SDS011;4895;50.926;6.870;2023-04-25T02:10:47;14.33;;;5.10;;
9712;SDS011;4895;50.926;6.870;2023-04-25T02:13:12;26.10;;;6.83;;
9712;SDS011;4895;50.926;6.870;2023-04-25T02:15:37;20.60;;;5.73;;
9712;SDS011;4895;50.926;6.870;2023-04-25T02:18:02;16.77;;;5.97;;
9712;SDS011;4895;50.926;6.870;2023-04-25T02:20:28;35.13;;;7.17;;
9712;SDS011;4895;50.926;6.870;2023-04-25T02:22:55;20.70;;;5.97;;
9712;SDS011;4895;50.926;6.870;2023-04-25T02:25:20;23.17;;;6.07;;
9712;SDS011;4895;50.926;6.870;2023-04-25T02:27:46;18.47;;;6.30;;
9712;SDS011;4895;50.926;6.870;2023-04-25T02:30:12;20.17;;;5.87;;
9712;SDS011;4895;50.926;6.870;2023-04-25T02:32:38;12.57;;;4.80;;
9712;SDS011;4895;50.926;6.870;2023-04-25T02:35:04;15.03;;;4.73;;
9712;SDS011;4895;50.926;6.870;2023-04-25T02:37:30;19.37;;;4.87;;
9712;SDS011;4895;50.926;6.870;2023-04-25T02:39:56;14.53;;;4.67;;
9712;SDS011;4895;50.926;6.870;2023-04-25T02:42:21;26.03;;;4.70;;
9712;SDS011;4895;50.926;6.870;2023-04-25T02:44:47;15.50;;;4.67;;
9712;SDS011;4895;50.926;6.870;2023-04-25T02:47:12;11.13;;;4.50;;
9712;SDS011;4895;50.926;6.870;2023-04-25T02:49:37;12.03;;;4.30;;
9712;SDS011;4895;50.926;6.870;2023-04-25T02:52:02;12.40;;;5.07;;
9712;SDS011;4895;50.926;6.870;2023-04-25T02:54:28;18.50;;;5.30;;
9712;SDS011;4895;50.926;6.870;2023-04-25T02:56:53;15.67;;;4.60;;
9712;SDS011;4895;50.926;6.870;2023-04-25T02:59:18;16.23;;;5.40;;
9712;SDS011;4895;50.926;6.870;2023-04-25T03:01:43;16.80;;;5.07;;
9712;SDS011;4895;50.926;6.870;2023-04-25T03:04:10;15.73;;;4.93;;
9712;SDS011;4895;50.926;6.870;2023-04-25T03:06:35;25.67;;;6.07;;
9712;SDS011;4895;50.926;6.870;2023-04-25T03:09:00;19.47;;;4.80;;
9712;SDS011;4895;50.926;6.870;2023-04-25T03:11:26;16.93;;;4.40;;
9712;SDS011;4895;50.926;6.870;2023-04-25T03:13:51;11.67;;;4.90;;
9712;SDS011;4895;50.926;6.870;2023-04-25T03:16:16;19.83;;;5.70;;
9712;SDS011;4895;50.926;6.870;2023-04-25T03:18:41;16.37;;;4.50;;
9712;SDS011;4895;50.926;6.870;2023-04-25T03:21:07;20.23;;;4.77;;
9712;SDS011;4895;50.926;6.870;2023-04-25T03:23:32;19.80;;;5.03;;
9712;SDS011;4895;50.926;6.870;2023-04-25T03:25:57;17.20;;;4.87;;
9712;SDS011;4895;50.926;6.870;2023-04-25T03:28:23;17.90;;;6.10;;
9712;SDS011;4895;50.926;6.870;2023-04-25T03:30:48;13.80;;;4.23;;
9712;SDS011;4895;50.926;6.870;2023-04-25T03:33:13;15.93;;;6.20;;
9712;SDS011;4895;50.926;6.870;2023-04-25T03:35:39;12.37;;;4.90;;
9712;SDS011;4895;50.926;6.870;2023-04-25T03:38:04;14.53;;;4.40;;
9712;SDS011;4895;50.926;6.870;2023-04-25T03:40:29;15.10;;;5.20;;
9712;SDS011;4895;50.926;6.870;2023-04-25T03:42:54;11.13;;;4.30;;
9712;SDS011;4895;50.926;6.870;2023-04-25T03:45:20;15.07;;;4.97;;
9712;SDS011;4895;50.926;6.870;2023-04-25T03:47:45;22.43;;;4.97;;
9712;SDS011;4895;50.926;6.870;2023-04-25T03:50:10;13.67;;;4.97;;
9712;SDS011;4895;50.926;6.870;2023-04-25T03:52:35;13.83;;;5.17;;
9712;SDS011;4895;50.926;6.870;2023-04-25T03:55:01;10.10;;;4.93;;
9712;SDS011;4895;50.926;6.870;2023-04-25T03:57:26;18.40;;;5.20;;
9712;SDS011;4895;50.926;6.870;2023-04-25T03:59:51;14.87;;;4.87;;
9712;SDS011;4895;50.926;6.870;2023-04-25T04:02:20;20.60;;;5.30;;
9712;SDS011;4895;50.926;6.870;2023-04-25T04:04:51;17.50;;;5.80;;
9712;SDS011;4895;50.926;6.870;2023-04-25T04:07:27;15.60;;;6.07;;
9712;SDS011;4895;50.926;6.870;2023-04-25T04:09:58;9.43;;;4.33;;
9712;SDS011;4895;50.926;6.870;2023-04-25T04:12:24;27.00;;;5.60;;
9712;SDS011;4895;50.926;6.870;2023-04-25T04:14:52;14.40;;;5.60;;
9712;SDS011;4895;50.926;6.870;2023-04-25T04:17:18;11.53;;;5.33;;
9712;SDS011;4895;50.926;6.870;2023-04-25T04:19:43;13.87;;;5.20;;
9712;SDS011;4895;50.926;6.870;2023-04-25T04:22:09;19.20;;;5.33;;
9712;SDS011;4895;50.926;6.870;2023-04-25T04:24:34;21.17;;;6.13;;
9712;SDS011;4895;50.926;6.870;2023-04-25T04:27:00;22.13;;;5.53;;
9712;SDS011;4895;50.926;6.870;2023-04-25T04:29:25;17.63;;;5.67;;
9712;SDS011;4895;50.926;6.870;2023-04-25T04:31:51;20.20;;;5.40;;
9712;SDS011;4895;50.926;6.870;2023-04-25T04:34:17;18.20;;;5.77;;
9712;SDS011;4895;50.926;6.870;2023-04-25T04:36:43;21.23;;;5.00;;
9712;SDS011;4895;50.926;6.870;2023-04-25T04:39:11;25.27;;;5.47;;
9712;SDS011;4895;50.926;6.870;2023-04-25T04:41:37;20.30;;;5.30;;
9712;SDS011;4895;50.926;6.870;2023-04-25T04:44:02;13.20;;;5.60;;
9712;SDS011;4895;50.926;6.870;2023-04-25T04:46:27;22.20;;;5.70;;
9712;SDS011;4895;50.926;6.870;2023-04-25T04:48:53;19.70;;;5.27;;
9712;SDS011;4895;50.926;6.870;2023-04-25T04:51:18;16.50;;;5.37;;
9712;SDS011;4895;50.926;6.870;2023-04-25T04:53:45;24.87;;;5.67;;
9712;SDS011;4895;50.926;6.870;2023-04-25T04:56:10;19.17;;;5.33;;
9712;SDS011;4895;50.926;6.870;2023-04-25T04:58:36;13.57;;;5.30;;
9712;SDS011;4895;50.926;6.870;2023-04-25T05:01:01;17.87;;;5.73;;
9712;SDS011;4895;50.926;6.870;2023-04-25T05:03:27;20.67;;;5.50;;
9712;SDS011;4895;50.926;6.870;2023-04-25T05:05:52;20.67;;;5.43;;
9712;SDS011;4895;50.926;6.870;2023-04-25T05:08:17;15.23;;;5.20;;
9712;SDS011;4895;50.926;6.870;2023-04-25T05:10:42;21.17;;;5.20;;
9712;SDS011;4895;50.926;6.870;2023-04-25T05:13:08;22.10;;;6.87;;
9712;SDS011;4895;50.926;6.870;2023-04-25T05:15:33;26.60;;;6.17;;
9712;SDS011;4895;50.926;6.870;2023-04-25T05:17:58;17.17;;;5.40;;
9712;SDS011;4895;50.926;6.870;2023-04-25T05:20:23;21.13;;;5.70;;
9712;SDS011;4895;50.926;6.870;2023-04-25T05:22:49;18.50;;;6.00;;
9712;SDS011;4895;50.926;6.870;2023-04-25T05:25:14;26.53;;;6.10;;
9712;SDS011;4895;50.926;6.870;2023-04-25T05:27:39;22.73;;;6.43;;
9712;SDS011;4895;50.926;6.870;2023-04-25T05:30:05;23.97;;;5.03;;
9712;SDS011;4895;50.926;6.870;2023-04-25T05:32:31;23.73;;;5.97;;
9712;SDS011;4895;50.926;6.870;2023-04-25T05:34:56;26.50;;;6.10;;
9712;SDS011;4895;50.926;6.870;2023-04-25T05:37:21;19.13;;;5.30;;
9712;SDS011;4895;50.926;6.870;2023-04-25T05:39:46;22.80;;;5.90;;
9712;SDS011;4895;50.926;6.870;2023-04-25T05:42:12;21.73;;;6.00;;
9712;SDS011;4895;50.926;6.870;2023-04-25T05:44:37;20.53;;;5.70;;
9712;SDS011;4895;50.926;6.870;2023-04-25T05:47:02;25.20;;;5.13;;
9712;SDS011;4895;50.926;6.870;2023-04-25T05:49:29;23.80;;;5.13;;
9712;SDS011;4895;50.926;6.870;2023-04-25T05:51:55;21.67;;;5.37;;
9712;SDS011;4895;50.926;6.870;2023-04-25T05:54:20;24.73;;;6.20;;
9712;SDS011;4895;50.926;6.870;2023-04-25T05:56:45;20.30;;;5.90;;
9712;SDS011;4895;50.926;6.870;2023-04-25T05:59:11;29.13;;;6.07;;
9712;SDS011;4895;50.926;6.870;2023-04-25T06:01:36;25.53;;;6.33;;
9712;SDS011;4895;50.926;6.870;2023-04-25T06:04:01;25.33;;;6.30;;
9712;SDS011;4895;50.926;6.870;2023-04-25T06:06:27;21.50;;;5.30;;
9712;SDS011;4895;50.926;6.870;2023-04-25T06:08:52;18.90;;;5.10;;
9712;SDS011;4895;50.926;6.870;2023-04-25T06:11:18;23.57;;;5.70;;
9712;SDS011;4895;50.926;6.870;2023-04-25T06:13:43;20.27;;;5.17;;
9712;SDS011;4895;50.926;6.870;2023-04-25T06:16:08;20.17;;;4.57;;
9712;SDS011;4895;50.926;6.870;2023-04-25T06:18:33;14.93;;;4.57;;
9712;SDS011;4895;50.926;6.870;2023-04-25T06:20:59;28.00;;;5.27;;
9712;SDS011;4895;50.926;6.870;2023-04-25T06:23:24;24.60;;;6.90;;
9712;SDS011;4895;50.926;6.870;2023-04-25T06:25:49;19.13;;;4.87;;
9712;SDS011;4895;50.926;6.870;2023-04-25T06:28:15;23.20;;;5.40;;
9712;SDS011;4895;50.926;6.870;2023-04-25T06:30:40;22.67;;;5.43;;
9712;SDS011;4895;50.926;6.870;2023-04-25T06:33:05;17.23;;;5.30;;
9712;SDS011;4895;50.926;6.870;2023-04-25T06:35:30;17.73;;;4.30;;
9712;SDS011;4895;50.926;6.870;2023-04-25T06:37:56;27.93;;;4.63;;
9712;SDS011;4895;50.926;6.870;2023-04-25T06:40:21;12.37;;;4.70;;
9712;SDS011;4895;50.926;6.870;2023-04-25T06:42:46;15.50;;;4.10;;
9712;SDS011;4895;50.926;6.870;2023-04-25T06:45:11;15.00;;;4.40;;
9712;SDS011;4895;50.926;6.870;2023-04-25T06:47:37;13.50;;;4.03;;
9712;SDS011;4895;50.926;6.870;2023-04-25T06:50:02;13.83;;;5.00;;
9712;SDS011;4895;50.926;6.870;2023-04-25T06:52:28;17.47;;;4.63;;
9712;SDS011;4895;50.926;6.870;2023-04-25T06:54:53;12.67;;;4.23;;
9712;SDS011;4895;50.926;6.870;2023-04-25T06:57:18;16.67;;;4.70;;
9712;SDS011;4895;50.926;6.870;2023-04-25T06:59:43;19.87;;;4.63;;
9712;SDS011;4895;50.926;6.870;2023-04-25T07:02:09;28.50;;;6.03;;
9712;SDS011;4895;50.926;6.870;2023-04-25T07:04:34;22.10;;;4.50;;
9712;SDS011;4895;50.926;6.870;2023-04-25T07:06:59;12.73;;;3.60;;
9712;SDS011;4895;50.926;6.870;2023-04-25T07:09:27;19.47;;;4.70;;
9712;SDS011;4895;50.926;6.870;2023-04-25T07:11:53;13.63;;;3.93;;
9712;SDS011;4895;50.926;6.870;2023-04-25T07:14:18;19.60;;;4.40;;
9712;SDS011;4895;50.926;6.870;2023-04-25T07:16:43;23.63;;;6.33;;
9712;SDS011;4895;50.926;6.870;2023-04-25T07:19:08;12.47;;;3.87;;
9712;SDS011;4895;50.926;6.870;2023-04-25T07:21:34;16.37;;;3.40;;
9712;SDS011;4895;50.926;6.870;2023-04-25T07:24:01;17.50;;;4.03;;
9712;SDS011;4895;50.926;6.870;2023-04-25T07:26:26;17.93;;;3.50;;
9712;SDS011;4895;50.926;6.870;2023-04-25T07:28:52;15.60;;;3.87;;
9712;SDS011;4895;50.926;6.870;2023-04-25T07:31:17;16.60;;;3.80;;
9712;SDS011;4895;50.926;6.870;2023-04-25T07:33:45;16.90;;;4.47;;
9712;SDS011;4895;50.926;6.870;2023-04-25T07:36:11;22.80;;;4.70;;
9712;SDS011;4895;50.926;6.870;2023-04-25T07:38:37;20.13;;;3.80;;
9712;SDS011;4895;50.926;6.870;2023-04-25T07:41:03;13.83;;;3.87;;
9712;SDS011;4895;50.926;6.870;2023-04-25T07:43:28;20.50;;;4.30;;
9712;SDS011;4895;50.926;6.870;2023-04-25T07:45:53;12.03;;;4.07;;
9712;SDS011;4895;50.926;6.870;2023-04-25T07:48:19;19.30;;;3.80;;
9712;SDS011;4895;50.926;6.870;2023-04-25T07:50:44;21.27;;;4.30;;
9712;SDS011;4895;50.926;6.870;2023-04-25T07:53:10;11.67;;;3.63;;
9712;SDS011;4895;50.926;6.870;2023-04-25T07:55:35;12.97;;;2.90;;
9712;SDS011;4895;50.926;6.870;2023-04-25T07:58:01;12.17;;;3.40;;
9712;SDS011;4895;50.926;6.870;2023-04-25T08:00:26;18.33;;;4.20;;
9712;SDS011;4895;50.926;6.870;2023-04-25T08:02:52;12.23;;;3.23;;
9712;SDS011;4895;50.926;6.870;2023-04-25T08:05:17;17.57;;;4.20;;
9712;SDS011;4895;50.926;6.870;2023-04-25T08:07:43;11.70;;;3.23;;
9712;SDS011;4895;50.926;6.870;2023-04-25T08:10:08;17.57;;;3.87;;
9712;SDS011;4895;50.926;6.870;2023-04-25T08:12:34;9.93;;;2.63;;
9712;SDS011;4895;50.926;6.870;2023-04-25T08:14:59;14.70;;;3.60;;
9712;SDS011;4895;50.926;6.870;2023-04-25T08:17:24;11.40;;;3.30;;
9712;SDS011;4895;50.926;6.870;2023-04-25T08:19:50;9.33;;;2.70;;
9712;SDS011;4895;50.926;6.870;2023-04-25T08:22:15;14.73;;;3.30;;
9712;SDS011;4895;50.926;6.870;2023-04-25T08:24:41;15.30;;;3.50;;
9712;SDS011;4895;50.926;6.870;2023-04-25T08:27:06;18.20;;;3.20;;
9712;SDS011;4895;50.926;6.870;2023-04-25T08:29:32;22.43;;;3.90;;
9712;SDS011;4895;50.926;6.870;2023-04-25T08:31:58;9.13;;;3.07;;
9712;SDS011;4895;50.926;6.870;2023-04-25T08:34:23;12.47;;;3.20;;
9712;SDS011;4895;50.926;6.870;2023-04-25T08:36:50;12.07;;;3.10;;
9712;SDS011;4895;50.926;6.870;2023-04-25T08:39:16;7.57;;;2.50;;
9712;SDS011;4895;50.926;6.870;2023-04-25T08:41:41;10.87;;;3.23;;
9712;SDS011;4895;50.926;6.870;2023-04-25T08:44:06;8.20;;;3.30;;
9712;SDS011;4895;50.926;6.870;2023-04-25T08:46:35;12.53;;;3.27;;
9712;SDS011;4895;50.926;6.870;2023-04-25T08:49:03;9.10;;;2.70;;
9712;SDS011;4895;50.926;6.870;2023-04-25T08:51:30;12.17;;;2.43;;
9712;SDS011;4895;50.926;6.870;2023-04-25T08:53:57;11.53;;;2.90;;
9712;SDS011;4895;50.926;6.870;2023-04-25T08:56:34;10.20;;;2.80;;
9712;SDS011;4895;50.926;6.870;2023-04-25T08:59:00;11.80;;;2.57;;
9712;SDS011;4895;50.926;6.870;2023-04-25T09:01:27;13.57;;;3.07;;
9712;SDS011;4895;50.926;6.870;2023-04-25T09:03:52;17.53;;;2.73;;
9712;SDS011;4895;50.926;6.870;2023-04-25T09:06:18;15.00;;;3.07;;
9712;SDS011;4895;50.926;6.870;2023-04-25T09:08:44;11.70;;;2.20;;
9712;SDS011;4895;50.926;6.870;2023-04-25T09:11:09;10.60;;;3.13;;
9712;SDS011;4895;50.926;6.870;2023-04-25T09:13:35;8.97;;;2.40;;
9712;SDS011;4895;50.926;6.870;2023-04-25T09:16:00;17.60;;;3.40;;
9712;SDS011;4895;50.926;6.870;2023-04-25T09:20:55;14.00;;;2.57;;
9712;SDS011;4895;50.926;6.870;2023-04-25T09:23:22;14.90;;;3.10;;
9712;SDS011;4895;50.926;6.870;2023-04-25T09:25:48;8.60;;;3.10;;
9712;SDS011;4895;50.926;6.870;2023-04-25T09:28:15;17.47;;;3.70;;
9712;SDS011;4895;50.926;6.870;2023-04-25T09:30:41;8.43;;;2.57;;
9712;SDS011;4895;50.926;6.870;2023-04-25T09:33:07;17.00;;;2.87;;
9712;SDS011;4895;50.926;6.870;2023-04-25T09:35:37;13.20;;;2.53;;
9712;SDS011;4895;50.926;6.870;2023-04-25T09:38:10;11.57;;;3.00;;
9712;SDS011;4895;50.926;6.870;2023-04-25T09:40:43;11.83;;;2.77;;
9712;SDS011;4895;50.926;6.870;2023-04-25T09:43:19;17.27;;;3.10;;
9712;SDS011;4895;50.926;6.870;2023-04-25T09:45:46;17.90;;;3.80;;
9712;SDS011;4895;50.926;6.870;2023-04-25T09:48:15;9.60;;;2.90;;
9712;SDS011;4895;50.926;6.870;2023-04-25T09:50:45;12.97;;;2.47;;
9712;SDS011;4895;50.926;6.870;2023-04-25T09:53:31;16.13;;;3.53;;
9712;SDS011;4895;50.926;6.870;2023-04-25T09:55:58;17.33;;;2.90;;
9712;SDS011;4895;50.926;6.870;2023-04-25T09:58:25;15.03;;;2.73;;
9712;SDS011;4895;50.926;6.870;2023-04-25T10:00:51;12.83;;;3.00;;
9712;SDS011;4895;50.926;6.870;2023-04-25T10:03:17;15.53;;;2.80;;
9712;SDS011;4895;50.926;6.870;2023-04-25T10:05:42;11.00;;;2.93;;
9712;SDS011;4895;50.926;6.870;2023-04-25T10:08:08;11.40;;;3.00;;
9712;SDS011;4895;50.926;6.870;2023-04-25T10:10:34;7.60;;;2.70;;
9712;SDS011;4895;50.926;6.870;2023-04-25T10:13:02;12.77;;;3.33;;
9712;SDS011;4895;50.926;6.870;2023-04-25T10:15:29;21.53;;;3.10;;
9712;SDS011;4895;50.926;6.870;2023-04-25T10:17:54;12.33;;;2.70;;
9712;SDS011;4895;50.926;6.870;2023-04-25T10:20:21;17.43;;;3.03;;
9712;SDS011;4895;50.926;6.870;2023-04-25T10:22:47;13.10;;;2.87;;
9712;SDS011;4895;50.926;6.870;2023-04-25T10:25:13;13.03;;;3.37;;
9712;SDS011;4895;50.926;6.870;2023-04-25T10:27:39;8.70;;;2.63;;
9712;SDS011;4895;50.926;6.870;2023-04-25T10:30:08;9.80;;;2.73;;
9712;SDS011;4895;50.926;6.870;2023-04-25T10:32:36;13.70;;;2.97;;
9712;SDS011;4895;50.926;6.870;2023-04-25T10:35:44;12.07;;;3.63;;
9712;SDS011;4895;50.926;6.870;2023-04-25T10:40:25;18.03;;;3.47;;
9712;SDS011;4895;50.926;6.870;2023-04-25T10:42:54;8.43;;;2.60;;
9712;SDS011;4895;50.926;6.870;2023-04-25T10:45:20;9.63;;;3.07;;
9712;SDS011;4895;50.926;6.870;2023-04-25T10:47:46;11.47;;;3.43;;
9712;SDS011;4895;50.926;6.870;2023-04-25T10:50:11;11.17;;;2.60;;
9712;SDS011;4895;50.926;6.870;2023-04-25T10:52:40;16.67;;;3.10;;
9712;SDS011;4895;50.926;6.870;2023-04-25T10:55:06;9.60;;;2.87;;
9712;SDS011;4895;50.926;6.870;2023-04-25T10:57:41;14.37;;;2.40;;
9712;SDS011;4895;50.926;6.870;2023-04-25T11:02:47;7.53;;;2.33;;
9712;SDS011;4895;50.926;6.870;2023-04-25T11:05:31;11.20;;;2.60;;
9712;SDS011;4895;50.926;6.870;2023-04-25T11:07:58;7.20;;;2.20;;
9712;SDS011;4895;50.926;6.870;2023-04-25T11:10:28;6.30;;;2.20;;
9712;SDS011;4895;50.926;6.870;2023-04-25T11:12:57;5.70;;;1.87;;
9712;SDS011;4895;50.926;6.870;2023-04-25T11:15:25;9.53;;;2.10;;
9712;SDS011;4895;50.926;6.870;2023-04-25T11:17:51;10.20;;;2.53;;
9712;SDS011;4895;50.926;6.870;2023-04-25T11:20:17;10.67;;;2.30;;
9712;SDS011;4895;50.926;6.870;2023-04-25T11:22:44;7.53;;;1.70;;
9712;SDS011;4895;50.926;6.870;2023-04-25T11:25:11;11.07;;;2.07;;
9712;SDS011;4895;50.926;6.870;2023-04-25T11:27:37;6.27;;;1.97;;
9712;SDS011;4895;50.926;6.870;2023-04-25T11:30:16;7.90;;;3.13;;
9712;SDS011;4895;50.926;6.870;2023-04-25T11:32:42;8.60;;;2.63;;
9712;SDS011;4895;50.926;6.870;2023-04-25T11:35:08;9.53;;;1.80;;
9712;SDS011;4895;50.926;6.870;2023-04-25T11:37:34;10.90;;;2.20;;
9712;SDS011;4895;50.926;6.870;2023-04-25T11:39:59;9.80;;;2.60;;
9712;SDS011;4895;50.926;6.870;2023-04-25T11:42:25;7.63;;;2.20;;
9712;SDS011;4895;50.926;6.870;2023-04-25T11:44:51;9.03;;;2.40;;
9712;SDS011;4895;50.926;6.870;2023-04-25T11:47:17;14.00;;;2.53;;
9712;SDS011;4895;50.926;6.870;2023-04-25T11:49:42;8.27;;;2.63;;
9712;SDS011;4895;50.926;6.870;2023-04-25T11:52:07;6.97;;;2.40;;
9712;SDS011;4895;50.926;6.870;2023-04-25T11:54:35;9.00;;;2.53;;
9712;SDS011;4895;50.926;6.870;2023-04-25T11:57:00;9.47;;;2.60;;
9712;SDS011;4895;50.926;6.870;2023-04-25T11:59:26;6.57;;;1.77;;
9712;SDS011;4895;50.926;6.870;2023-04-25T12:01:51;7.30;;;2.00;;
9712;SDS011;4895;50.926;6.870;2023-04-25T12:04:18;9.37;;;2.90;;
9712;SDS011;4895;50.926;6.870;2023-04-25T12:06:45;9.07;;;2.10;;
9712;SDS011;4895;50.926;6.870;2023-04-25T12:09:13;3.80;;;1.93;;
9712;SDS011;4895;50.926;6.870;2023-04-25T12:11:44;9.87;;;2.47;;
9712;SDS011;4895;50.926;6.870;2023-04-25T12:14:10;9.17;;;2.10;;
9712;SDS011;4895;50.926;6.870;2023-04-25T12:16:40;7.03;;;1.97;;
9712;SDS011;4895;50.926;6.870;2023-04-25T12:19:06;6.17;;;2.50;;
9712;SDS011;4895;50.926;6.870;2023-04-25T12:21:31;8.80;;;2.90;;
9712;SDS011;4895;50.926;6.870;2023-04-25T12:24:07;7.83;;;2.20;;
9712;SDS011;4895;50.926;6.870;2023-04-25T12:26:50;6.80;;;2.33;;
9712;SDS011;4895;50.926;6.870;2023-04-25T12:29:24;7.30;;;2.13;;
9712;SDS011;4895;50.926;6.870;2023-04-25T12:31:51;7.97;;;2.20;;
9712;SDS011;4895;50.926;6.870;2023-04-25T12:34:17;11.50;;;2.70;;
9712;SDS011;4895;50.926;6.870;2023-04-25T12:36:43;5.40;;;1.93;;
9712;SDS011;4895;50.926;6.870;2023-04-25T12:39:08;8.20;;;2.40;;
9712;SDS011;4895;50.926;6.870;2023-04-25T12:41:33;6.73;;;2.00;;
9712;SDS011;4895;50.926;6.870;2023-04-25T12:43:59;5.20;;;1.97;;
9712;SDS011;4895;50.926;6.870;2023-04-25T12:46:24;5.60;;;1.80;;
9712;SDS011;4895;50.926;6.870;2023-04-25T12:48:50;8.60;;;2.40;;
9712;SDS011;4895;50.926;6.870;2023-04-25T12:51:15;4.00;;;1.50;;
9712;SDS011;4895;50.926;6.870;2023-04-25T12:53:40;8.37;;;1.97;;
9712;SDS011;4895;50.926;6.870;2023-04-25T12:56:09;9.27;;;2.33;;
9712;SDS011;4895;50.926;6.870;2023-04-25T12:58:34;7.20;;;2.40;;
9712;SDS011;4895;50.926;6.870;2023-04-25T13:01:00;5.53;;;2.03;;
9712;SDS011;4895;50.926;6.870;2023-04-25T13:03:25;10.43;;;2.37;;
9712;SDS011;4895;50.926;6.870;2023-04-25T13:05:51;7.67;;;2.40;;
9712;SDS011;4895;50.926;6.870;2023-04-25T13:08:17;6.63;;;2.40;;
9712;SDS011;4895;50.926;6.870;2023-04-25T13:10:43;10.20;;;2.50;;
9712;SDS011;4895;50.926;6.870;2023-04-25T13:13:09;8.50;;;2.70;;
9712;SDS011;4895;50.926;6.870;2023-04-25T13:15:34;5.80;;;2.60;;
9712;SDS011;4895;50.926;6.870;2023-04-25T13:18:00;5.87;;;2.00;;
9712;SDS011;4895;50.926;6.870;2023-04-25T13:20:25;4.13;;;1.57;;
9712;SDS011;4895;50.926;6.870;2023-04-25T13:22:50;4.27;;;1.80;;
9712;SDS011;4895;50.926;6.870;2023-04-25T13:25:16;7.83;;;2.40;;
9712;SDS011;4895;50.926;6.870;2023-04-25T13:27:41;9.33;;;2.27;;
9712;SDS011;4895;50.926;6.870;2023-04-25T13:30:09;9.07;;;2.20;;
9712;SDS011;4895;50.926;6.870;2023-04-25T13:32:35;4.20;;;1.90;;
9712;SDS011;4895;50.926;6.870;2023-04-25T13:35:01;11.97;;;3.23;;
9712;SDS011;4895;50.926;6.870;2023-04-25T13:37:27;9.80;;;2.33;;
9712;SDS011;4895;50.926;6.870;2023-04-25T13:39:54;10.40;;;2.17;;
9712;SDS011;4895;50.926;6.870;2023-04-25T13:42:20;3.17;;;1.67;;
9712;SDS011;4895;50.926;6.870;2023-04-25T13:44:46;5.77;;;2.33;;
9712;SDS011;4895;50.926;6.870;2023-04-25T13:47:11;5.53;;;2.00;;
9712;SDS011;4895;50.926;6.870;2023-04-25T13:49:36;5.00;;;1.60;;
9712;SDS011;4895;50.926;6.870;2023-04-25T13:52:01;3.87;;;1.80;;
9712;SDS011;4895;50.926;6.870;2023-04-25T13:54:27;3.97;;;1.60;;
9712;SDS011;4895;50.926;6.870;2023-04-25T13:56:52;4.40;;;1.50;;
9712;SDS011;4895;50.926;6.870;2023-04-25T13:59:20;4.30;;;1.20;;
9712;SDS011;4895;50.926;6.870;2023-04-25T14:01:45;10.10;;;1.40;;
9712;SDS011;4895;50.926;6.870;2023-04-25T14:04:11;4.50;;;1.70;;
9712;SDS011;4895;50.926;6.870;2023-04-25T14:06:36;5.47;;;1.50;;
9712;SDS011;4895;50.926;6.870;2023-04-25T14:09:01;3.40;;;1.60;;
9712;SDS011;4895;50.926;6.870;2023-04-25T14:11:29;4.33;;;1.43;;
9712;SDS011;4895;50.926;6.870;2023-04-25T14:13:54;4.30;;;1.60;;
9712;SDS011;4895;50.926;6.870;2023-04-25T14:16:19;4.20;;;1.57;;
9712;SDS011;4895;50.926;6.870;2023-04-25T14:18:46;5.60;;;2.53;;
9712;SDS011;4895;50.926;6.870;2023-04-25T14:21:11;3.40;;;1.33;;
9712;SDS011;4895;50.926;6.870;2023-04-25T14:23:36;5.10;;;1.43;;
9712;SDS011;4895;50.926;6.870;2023-04-25T14:26:02;3.80;;;1.80;;
9712;SDS011;4895;50.926;6.870;2023-04-25T14:28:27;4.80;;;1.73;;
9712;SDS011;4895;50.926;6.870;2023-04-25T14:30:52;4.40;;;1.20;;
9712;SDS011;4895;50.926;6.870;2023-04-25T14:33:17;2.07;;;0.97;;
9712;SDS011;4895;50.926;6.870;2023-04-25T14:35:43;2.10;;;1.20;;
9712;SDS011;4895;50.926;6.870;2023-04-25T14:38:08;2.40;;;1.23;;
9712;SDS011;4895;50.926;6.870;2023-04-25T14:40:33;4.97;;;1.40;;
9712;SDS011;4895;50.926;6.870;2023-04-25T14:42:59;5.17;;;1.27;;
9712;SDS011;4895;50.926;6.870;2023-04-25T14:45:24;3.80;;;1.50;;
9712;SDS011;4895;50.926;6.870;2023-04-25T14:47:49;7.90;;;1.60;;
9712;SDS011;4895;50.926;6.870;2023-04-25T14:50:15;4.43;;;1.57;;
9712;SDS011;4895;50.926;6.870;2023-04-25T14:52:40;4.97;;;1.50;;
9712;SDS011;4895;50.926;6.870;2023-04-25T14:55:05;6.30;;;1.70;;
9712;SDS011;4895;50.926;6.870;2023-04-25T14:57:32;3.47;;;1.40;;
9712;SDS011;4895;50.926;6.870;2023-04-25T14:59:58;4.43;;;1.60;;
9712;SDS011;4895;50.926;6.870;2023-04-25T15:02:23;4.80;;;1.60;;
9712;SDS011;4895;50.926;6.870;2023-04-25T15:04:49;3.83;;;1.40;;
9712;SDS011;4895;50.926;6.870;2023-04-25T15:07:14;9.70;;;1.73;;